Time;durP1;ratioP1;P1;durP2;ratioP2;P2;SDS_P1;SDS_P2;PMS_P1;PMS_P2;Temp;Humidity;BMP_temperature;BMP_pressure;BME280_temperature;BME280_humidity;BME280_pressure;Samples;Min_cycle;Max_cycle;Signal;HPM_P1;HPM_P2
2022/03/31 00:01:28;;;;;;;6.85;5.35;;;;;;;6.42;67.32;100025.72;5034537;28;20041;-59
2022/03/31 00:03:53;;;;;;;7.50;5.82;;;;;;;6.44;67.88;100029.16;5034907;28;20127;-59
2022/03/31 00:06:19;;;;;;;7.45;5.18;;;;;;;6.55;67.57;100030.78;5034866;28;20030;-59
2022/03/31 00:08:44;;;;;;;6.88;5.57;;;;;;;6.54;67.27;100031.66;5034499;28;20037;-60
2022/03/31 00:11:11;;;;;;;6.93;5.68;;;;;;;6.53;67.33;100027.34;5034537;28;20034;-59
2022/03/31 00:13:36;;;;;;;6.30;5.50;;;;;;;6.49;67.08;100023.03;5034702;28;20459;-59
2022/03/31 00:16:01;;;;;;;6.78;5.65;;;;;;;6.45;67.70;100028.28;5034665;28;20037;-60
2022/03/31 00:18:28;;;;;;;9.05;6.03;;;;;;;6.57;67.64;100030.78;5034916;28;20056;-60
2022/03/31 00:24:15;;;;;;;6.45;5.80;;;;;;;6.41;67.93;100032.66;5034722;28;20064;-59
2022/03/31 00:26:41;;;;;;;8.82;6.15;;;;;;;6.34;68.20;100037.94;5034626;28;20436;-60
2022/03/31 00:29:07;;;;;;;7.88;5.95;;;;;;;6.23;68.73;100041.47;5037970;28;20052;-59
2022/03/31 00:31:33;;;;;;;8.73;6.15;;;;;;;6.22;69.19;100044.09;5038317;28;20452;-60
2022/03/31 00:33:58;;;;;;;8.20;6.35;;;;;;;6.21;69.49;100037.19;5038604;28;20037;-59
2022/03/31 00:36:23;;;;;;;7.32;6.28;;;;;;;6.24;69.55;100044.94;5038033;28;20415;-59
2022/03/31 00:41:37;;;;;;;8.77;6.30;;;;;;;6.34;69.51;100031.00;5038087;28;20095;-59
2022/03/31 00:44:03;;;;;;;7.75;6.15;;;;;;;6.26;69.13;100023.25;5038533;28;20029;-59
2022/03/31 00:46:29;;;;;;;10.00;6.88;;;;;;;6.05;69.71;100001.81;5037176;28;20052;-59
2022/03/31 00:48:54;;;;;;;9.63;6.82;;;;;;;6.15;69.56;100025.09;5037961;28;20034;-59
2022/03/31 00:51:20;;;;;;;8.77;7.05;;;;;;;6.19;69.83;100024.22;5037447;28;20052;-59
2022/03/31 00:53:45;;;;;;;11.65;7.43;;;;;;;6.25;69.78;100036.25;5038164;28;20040;-59
2022/03/31 00:56:11;;;;;;;11.85;7.88;;;;;;;6.10;69.96;100039.84;5037924;28;20061;-59
2022/03/31 00:58:38;;;;;;;12.73;7.95;;;;;;;6.14;70.33;100038.09;5037847;28;20026;-59
2022/03/31 01:01:03;;;;;;;10.80;8.05;;;;;;;6.08;70.61;100031.22;5037904;28;20033;-59
2022/03/31 01:03:29;;;;;;;10.85;7.78;;;;;;;6.07;70.98;100032.09;5037475;28;20029;-59
2022/03/31 01:05:55;;;;;;;14.30;8.57;;;;;;;6.02;70.93;100035.59;5037658;28;20037;-59
2022/03/31 01:08:21;;;;;;;12.77;8.98;;;;;;;6.06;70.99;100032.94;5037721;28;20083;-59
2022/03/31 01:10:49;;;;;;;13.15;9.02;;;;;;;6.14;70.23;100022.50;5037881;28;20407;-59
2022/03/31 01:13:14;;;;;;;12.10;8.48;;;;;;;6.10;70.45;100023.41;5037620;28;20039;-59
2022/03/31 01:15:40;;;;;;;12.98;8.40;;;;;;;6.00;70.87;100016.59;5037414;28;20411;-59
2022/03/31 01:18:05;;;;;;;12.07;8.93;;;;;;;6.00;71.09;100021.78;5037683;28;20083;-59
2022/03/31 01:20:33;;;;;;;15.13;9.27;;;;;;;6.06;71.10;100008.75;5037352;28;20061;-59
2022/03/31 01:23:00;;;;;;;16.25;9.05;;;;;;;6.10;71.25;100000.91;5037448;28;20128;-59
2022/03/31 01:25:26;;;;;;;14.43;9.48;;;;;;;6.12;70.60;100001.75;5037562;28;20033;-59
2022/03/31 01:27:52;;;;;;;12.90;9.38;;;;;;;6.15;70.76;100001.72;5036834;28;20036;-60
2022/03/31 01:30:22;;;;;;;13.57;9.20;;;;;;;6.19;70.77;99993.03;5037083;28;20029;-59
2022/03/31 01:32:48;;;;;;;15.02;9.93;;;;;;;6.18;70.89;100000.84;5036902;28;20511;-59
2022/03/31 01:35:15;;;;;;;12.85;8.70;;;;;;;6.16;70.81;99995.66;5037727;28;20116;-59
2022/03/31 01:37:41;;;;;;;14.23;9.05;;;;;;;6.07;71.58;99994.84;5036899;28;20432;-59
2022/03/31 01:40:08;;;;;;;11.63;8.32;;;;;;;5.93;72.18;100003.63;5036235;28;20384;-59
2022/03/31 01:42:34;;;;;;;14.18;9.32;;;;;;;5.86;73.18;100001.09;5036955;28;20048;-59
2022/03/31 01:45:00;;;;;;;12.45;8.95;;;;;;;5.77;73.57;99999.41;5037040;28;20310;-59
2022/03/31 01:47:25;;;;;;;14.90;9.48;;;;;;;5.68;74.05;100009.88;5036860;28;20045;-60
2022/03/31 01:49:51;;;;;;;14.18;9.65;;;;;;;5.57;75.37;99999.53;5037055;28;20033;-59
2022/03/31 01:52:17;;;;;;;14.80;9.90;;;;;;;5.46;75.54;99982.34;5037101;28;20056;-59
2022/03/31 01:54:43;;;;;;;14.85;10.50;;;;;;;5.60;75.46;99993.47;5037056;28;20364;-59
2022/03/31 01:57:08;;;;;;;13.88;9.68;;;;;;;5.62;75.55;99983.94;5036601;28;20033;-61
2022/03/31 01:59:35;;;;;;;14.90;9.55;;;;;;;5.62;75.62;99988.28;5036454;28;20114;-59
2022/03/31 02:02:01;;;;;;;16.90;10.20;;;;;;;5.60;75.64;99989.16;5036818;28;20112;-59
2022/03/31 02:04:26;;;;;;;14.98;10.18;;;;;;;5.45;76.27;99978.88;5036604;28;20120;-59
2022/03/31 02:06:52;;;;;;;17.20;10.95;;;;;;;5.37;76.89;99982.41;5036676;28;20037;-59
2022/03/31 02:09:17;;;;;;;18.70;10.80;;;;;;;5.36;78.08;99981.53;5036581;28;20060;-59
2022/03/31 02:11:45;;;;;;;19.63;11.57;;;;;;;5.36;77.74;99980.69;5036643;28;20095;-60
2022/03/31 02:14:12;;;;;;;18.70;11.93;;;;;;;5.24;78.29;99986.78;5036500;28;20033;-59
2022/03/31 02:16:37;;;;;;;18.52;12.20;;;;;;;5.23;79.12;99975.53;5036457;28;20026;-59
2022/03/31 02:19:03;;;;;;;17.80;11.73;;;;;;;5.20;78.90;99953.94;5036323;28;20043;-59
2022/03/31 02:21:28;;;;;;;21.52;12.60;;;;;;;5.21;79.20;99966.03;5035954;28;20042;-59
2022/03/31 02:23:54;;;;;;;19.85;11.98;;;;;;;5.10;79.05;99962.66;5036405;28;20034;-59
2022/03/31 02:26:19;;;;;;;21.25;13.18;;;;;;;5.08;79.56;99965.25;5036382;28;20022;-60
2022/03/31 02:28:45;;;;;;;19.52;12.63;;;;;;;5.02;79.53;99964.44;5036881;28;20037;-59
2022/03/31 02:31:10;;;;;;;19.05;12.48;;;;;;;5.03;80.28;99968.72;5036058;28;20037;-59
2022/03/31 02:33:36;;;;;;;19.83;12.60;;;;;;;5.06;79.83;99964.41;5035958;28;20033;-59
2022/03/31 02:36:01;;;;;;;18.08;12.30;;;;;;;5.07;79.91;99965.25;5036304;28;20072;-59
2022/03/31 02:38:27;;;;;;;19.52;12.57;;;;;;;4.97;80.57;99969.66;5035888;28;20429;-59
2022/03/31 02:40:52;;;;;;;19.70;12.70;;;;;;;4.95;80.45;99948.06;5036012;28;20029;-59
2022/03/31 02:43:17;;;;;;;20.33;11.27;;;;;;;5.00;80.64;99956.69;5035727;28;20044;-60
2022/03/31 02:45:43;;;;;;;18.17;10.50;;;;;;;4.98;80.33;99955.81;5035577;28;20433;-59
2022/03/31 02:48:08;;;;;;;18.13;11.70;;;;;;;4.92;80.99;99952.38;5035633;28;20041;-59
2022/03/31 02:50:34;;;;;;;16.33;11.32;;;;;;;4.90;81.01;99960.16;5035548;28;20040;-59
2022/03/31 02:55:43;;;;;;;14.80;10.15;;;;;;;4.90;81.36;99952.38;5035716;28;20467;-60
2022/03/31 02:58:08;;;;;;;15.15;10.23;;;;;;;4.94;82.78;99955.84;5035555;28;20059;-59
2022/03/31 03:00:36;;;;;;;14.15;9.80;;;;;;;4.88;83.52;99941.16;5035558;28;20056;-59
2022/03/31 03:03:03;;;;;;;14.85;9.57;;;;;;;4.76;84.33;99946.41;5035163;28;20056;-59
2022/03/31 03:05:29;;;;;;;14.43;9.55;;;;;;;4.82;84.37;99951.56;5035509;28;20112;-60
2022/03/31 03:07:54;;;;;;;14.43;9.90;;;;;;;4.77;84.26;99942.94;5035555;28;20488;-59
2022/03/31 03:10:20;;;;;;;15.20;10.80;;;;;;;4.75;85.38;99945.56;5035201;28;20037;-59
2022/03/31 03:12:45;;;;;;;15.55;11.10;;;;;;;4.72;85.44;99947.28;5035619;28;20029;-59
2022/03/31 03:15:11;;;;;;;13.80;10.82;;;;;;;4.66;85.85;99943.00;5035404;28;20041;-59
2022/03/31 03:17:41;;;;;;;15.27;10.52;;;;;;;4.63;86.01;99935.25;5035177;28;20033;-59
2022/03/31 03:20:08;;;;;;;11.45;8.77;;;;;;;4.59;86.02;99936.13;5035262;28;20050;-59
2022/03/31 03:22:33;;;;;;;11.73;8.48;;;;;;;4.48;85.94;99931.00;5035127;28;20033;-59
2022/03/31 03:24:59;;;;;;;10.95;7.38;;;;;;;4.45;86.44;99935.31;5035682;28;20343;-59
2022/03/31 03:27:26;;;;;;;8.93;7.45;;;;;;;4.32;86.78;99944.00;5035098;28;20028;-59
2022/03/31 03:29:51;;;;;;;10.13;7.57;;;;;;;4.35;87.15;99934.47;5034749;28;20416;-59
2022/03/31 03:32:17;;;;;;;8.55;7.35;;;;;;;4.36;86.23;99938.78;5035434;28;20043;-59
2022/03/31 03:34:42;;;;;;;8.05;6.90;;;;;;;4.34;85.84;99926.69;5035326;28;20087;-59
2022/03/31 03:37:07;;;;;;;9.45;7.35;;;;;;;4.17;86.21;99929.31;5035033;28;20087;-59
2022/03/31 03:39:34;;;;;;;9.50;7.18;;;;;;;4.13;86.83;99936.25;5034321;28;20045;-59
2022/03/31 03:42:00;;;;;;;8.25;6.72;;;;;;;4.10;87.17;99930.22;5034949;28;20029;-59
2022/03/31 03:44:25;;;;;;;9.02;6.50;;;;;;;4.08;86.66;99929.34;5034874;28;20476;-59
2022/03/31 03:46:51;;;;;;;6.72;5.70;;;;;;;4.07;86.53;99925.03;5034872;28;20033;-59
2022/03/31 03:49:17;;;;;;;7.28;5.68;;;;;;;4.08;86.95;99937.13;5035112;28;20036;-59
2022/03/31 03:51:43;;;;;;;5.80;4.90;;;;;;;4.06;87.04;99931.94;5034764;28;20029;-59
2022/03/31 03:54:08;;;;;;;6.05;4.07;;;;;;;4.02;85.65;99937.97;5034147;28;20084;-59
2022/03/31 03:56:34;;;;;;;4.55;4.15;;;;;;;3.84;86.47;99936.28;5034510;28;20061;-59
2022/03/31 03:58:59;;;;;;;4.55;4.13;;;;;;;3.79;87.10;99938.03;5034828;28;20045;-59
2022/03/31 04:01:24;;;;;;;4.20;3.70;;;;;;;3.79;87.14;99947.53;5035108;28;20338;-59
2022/03/31 04:03:49;;;;;;;6.20;4.00;;;;;;;3.89;86.03;99938.00;5037856;28;20108;-59
2022/03/31 04:06:15;;;;;;;4.35;3.92;;;;;;;3.78;86.19;99943.22;5038990;28;20057;-59
2022/03/31 04:08:40;;;;;;;4.82;4.00;;;;;;;3.57;87.19;99944.06;5038669;28;20041;-59
2022/03/31 04:11:05;;;;;;;5.47;4.50;;;;;;;3.51;87.50;99946.63;5038334;28;20033;-59
2022/03/31 04:13:30;;;;;;;4.95;4.32;;;;;;;3.49;88.56;99956.13;5038822;28;20033;-59
2022/03/31 04:15:56;;;;;;;5.50;4.65;;;;;;;3.41;89.64;99950.09;5038530;28;20037;-59
2022/03/31 04:18:21;;;;;;;5.20;4.70;;;;;;;3.39;88.46;99938.88;5037967;28;20033;-59
2022/03/31 04:20:46;;;;;;;5.68;4.80;;;;;;;3.14;89.47;99945.72;5038636;28;20041;-59
2022/03/31 04:23:11;;;;;;;5.72;4.55;;;;;;;3.09;91.14;99943.16;5038403;28;20029;-60
2022/03/31 04:25:37;;;;;;;5.85;4.90;;;;;;;3.19;92.71;99948.31;5038378;28;20037;-59
2022/03/31 04:28:04;;;;;;;5.35;4.75;;;;;;;3.15;91.51;99950.03;5038429;28;20120;-59
2022/03/31 04:30:29;;;;;;;5.65;4.53;;;;;;;2.92;92.63;99947.41;5038160;28;20318;-59
2022/03/31 04:32:54;;;;;;;7.60;4.78;;;;;;;2.74;94.01;99947.34;5038531;28;20044;-60
2022/03/31 04:35:19;;;;;;;6.18;5.07;;;;;;;2.51;95.49;99942.06;5037892;28;20029;-60
2022/03/31 04:37:45;;;;;;;4.90;4.15;;;;;;;2.50;95.25;99957.56;5038166;28;20038;-60
2022/03/31 04:40:10;;;;;;;6.20;4.85;;;;;;;2.34;95.62;99954.91;5037944;28;20427;-60
2022/03/31 04:42:36;;;;;;;4.90;4.20;;;;;;;2.24;96.52;99957.44;5037553;28;20468;-60
2022/03/31 04:45:02;;;;;;;6.20;4.82;;;;;;;2.21;97.80;99963.44;5038409;28;20037;-60
2022/03/31 04:47:29;;;;;;;5.13;4.50;;;;;;;2.22;98.11;99961.72;5037935;28;20437;-59
2022/03/31 04:49:54;;;;;;;4.53;3.83;;;;;;;2.21;97.12;99947.09;5038103;28;20392;-60
2022/03/31 04:52:20;;;;;;;4.78;3.92;;;;;;;2.19;97.46;99952.25;5037968;28;20037;-61
2022/03/31 04:54:45;;;;;;;4.80;3.45;;;;;;;2.16;97.00;99962.53;5038092;28;20487;-60
2022/03/31 04:57:13;;;;;;;4.20;3.65;;;;;;;2.14;98.23;99964.25;5037751;28;20041;-60
2022/03/31 04:59:38;;;;;;;4.20;3.80;;;;;;;2.08;98.51;99962.47;5037867;28;20037;-59
2022/03/31 05:02:04;;;;;;;4.20;3.80;;;;;;;2.11;98.33;99961.63;5037695;28;20433;-59
2022/03/31 05:04:29;;;;;;;4.35;3.40;;;;;;;2.07;98.28;99963.34;5037133;28;20072;-59
2022/03/31 05:06:55;;;;;;;4.25;3.80;;;;;;;2.12;98.88;99965.09;5037624;28;20112;-59
2022/03/31 05:09:21;;;;;;;4.47;4.07;;;;;;;2.09;98.83;99961.63;5037543;28;20055;-59
2022/03/31 05:11:47;;;;;;;5.25;4.00;;;;;;;2.13;98.71;99962.50;5037547;28;20064;-59
2022/03/31 05:14:12;;;;;;;4.75;3.53;;;;;;;2.04;97.87;99955.59;5036115;28;20441;-60
2022/03/31 05:16:37;;;;;;;5.03;4.22;;;;;;;1.98;98.64;99957.25;5037557;28;20037;-60
2022/03/31 05:19:02;;;;;;;5.55;4.18;;;;;;;2.01;99.08;99965.03;5037640;28;20033;-60
2022/03/31 05:21:28;;;;;;;4.72;4.05;;;;;;;1.88;98.97;99963.22;5037349;28;20076;-60
2022/03/31 05:23:53;;;;;;;7.03;4.03;;;;;;;1.83;98.55;99964.88;5037089;28;20393;-60
2022/03/31 05:26:18;;;;;;;7.00;4.38;;;;;;;1.70;99.17;99975.13;5037881;28;20041;-61
2022/03/31 05:28:44;;;;;;;4.82;4.03;;;;;;;1.66;98.60;99968.19;5036957;28;20038;-60
2022/03/31 05:31:09;;;;;;;6.40;4.10;;;;;;;1.35;99.81;99961.06;5036408;28;20064;-61
2022/03/31 05:33:34;;;;;;;5.18;3.83;;;;;;;1.26;99.65;99977.28;5037238;28;20112;-63
2022/03/31 05:36:01;;;;;;;4.53;3.85;;;;;;;1.08;100.00;99966.78;5037167;28;20044;-63
2022/03/31 05:38:27;;;;;;;5.53;4.15;;;;;;;1.11;100.00;99968.53;5036846;28;20116;-63
2022/03/31 05:40:52;;;;;;;4.70;3.67;;;;;;;1.02;100.00;99967.59;5036974;28;20480;-64
2022/03/31 05:43:17;;;;;;;4.03;3.03;;;;;;;0.97;100.00;99976.97;5037236;28;20341;-65
2022/03/31 05:45:43;;;;;;;6.32;4.47;;;;;;;0.98;100.00;99965.81;5036935;28;20038;-65
2022/03/31 05:48:08;;;;;;;5.53;4.28;;;;;;;1.05;100.00;99967.59;5036858;28;20037;-64
2022/03/31 05:50:33;;;;;;;5.57;4.25;;;;;;;1.11;100.00;99969.38;5036850;28;20061;-66
2022/03/31 05:52:59;;;;;;;5.75;4.10;;;;;;;1.05;100.00;99962.44;5036764;28;20344;-65
2022/03/31 05:55:24;;;;;;;4.90;3.85;;;;;;;1.15;100.00;99975.44;5036908;28;20033;-64
2022/03/31 05:57:49;;;;;;;4.10;3.53;;;;;;;0.97;100.00;99963.22;5033947;28;20041;-62
2022/03/31 06:00:18;;;;;;;6.63;4.28;;;;;;;0.87;100.00;99974.25;5035851;28;20037;-64
2022/03/31 06:02:43;;;;;;;5.93;4.18;;;;;;;0.91;100.00;99974.31;5036660;28;20038;-63
2022/03/31 06:05:10;;;;;;;7.13;4.72;;;;;;;0.75;100.00;99968.97;5036484;28;20048;-64
2022/03/31 06:07:36;;;;;;;5.60;4.55;;;;;;;0.73;100.00;99963.81;5036533;28;20037;-65
2022/03/31 06:10:01;;;;;;;7.72;4.70;;;;;;;0.80;100.00;99949.31;5036323;28;20144;-62
2022/03/31 06:12:26;;;;;;;6.45;4.57;;;;;;;0.95;100.00;99968.38;5036030;28;20026;-64
2022/03/31 06:14:51;;;;;;;6.68;4.72;;;;;;;0.89;100.00;99957.13;5036488;28;20029;-67
2022/03/31 06:17:17;;;;;;;5.38;4.15;;;;;;;0.97;100.00;99958.94;5036618;28;20413;-64
2022/03/31 06:19:42;;;;;;;5.75;4.88;;;;;;;0.99;100.00;99966.69;5055096;28;20033;-64
2022/03/31 06:22:07;;;;;;;5.45;4.22;;;;;;;1.11;100.00;99966.81;5056192;28;20072;-65
2022/03/31 06:24:33;;;;;;;4.78;4.07;;;;;;;1.25;100.00;99972.09;5055996;28;20029;-64
2022/03/31 06:27:00;;;;;;;6.10;4.03;;;;;;;1.20;100.00;99966.94;5054809;28;20043;-64
2022/03/31 06:29:25;;;;;;;5.25;4.32;;;;;;;1.26;100.00;99974.69;5035924;28;20029;-62
2022/03/31 06:31:53;;;;;;;5.90;3.50;;;;;;;1.28;100.00;99980.72;5035249;28;20034;-56
2022/03/31 06:34:19;;;;;;;4.40;3.60;;;;;;;1.35;100.00;99982.53;5036109;28;20348;-60
2022/03/31 06:36:44;;;;;;;4.90;3.67;;;;;;;1.29;100.00;99979.88;5035978;28;20044;-62
2022/03/31 06:39:09;;;;;;;5.18;4.30;;;;;;;1.35;100.00;99981.66;5034776;28;20037;-62
2022/03/31 06:41:35;;;;;;;5.13;4.03;;;;;;;1.29;100.00;99977.31;5035277;28;20053;-61
2022/03/31 06:44:00;;;;;;;6.53;4.70;;;;;;;1.22;100.00;99979.78;5035653;28;20048;-62
2022/03/31 06:46:25;;;;;;;6.72;5.25;;;;;;;1.34;100.00;99990.25;5035768;28;20064;-63
2022/03/31 06:48:51;;;;;;;5.90;4.70;;;;;;;1.37;100.00;99991.16;5035428;28;20038;-62
2022/03/31 06:51:19;;;;;;;8.40;5.78;;;;;;;1.48;100.00;99988.66;5035635;28;20068;-63
2022/03/31 06:53:45;;;;;;;7.65;5.57;;;;;;;1.55;100.00;99982.72;5035212;28;20464;-62
2022/03/31 06:56:16;;;;;;;6.30;5.10;;;;;;;1.57;100.00;99977.56;5035177;28;20067;-62
2022/03/31 06:58:42;;;;;;;6.30;5.18;;;;;;;1.55;100.00;99979.28;5035635;28;20034;-61
2022/03/31 07:01:07;;;;;;;6.13;5.07;;;;;;;1.59;100.00;99994.78;5035551;28;20124;-62
2022/03/31 07:03:33;;;;;;;6.97;5.45;;;;;;;1.58;100.00;99984.44;5035503;28;20036;-61
2022/03/31 07:05:58;;;;;;;6.55;5.53;;;;;;;1.52;100.00;99987.84;5035372;28;20073;-62
2022/03/31 07:08:24;;;;;;;6.25;4.85;;;;;;;1.42;100.00;99965.41;5035126;28;20053;-61
2022/03/31 07:10:49;;;;;;;8.40;6.07;;;;;;;1.48;100.00;99972.31;5035255;28;20037;-60
2022/03/31 07:13:15;;;;;;;8.07;6.57;;;;;;;1.58;100.00;99962.09;5035299;28;20463;-61
2022/03/31 07:15:40;;;;;;;7.50;5.88;;;;;;;1.65;100.00;99979.38;5034577;28;20041;-61
2022/03/31 07:18:06;;;;;;;7.53;5.65;;;;;;;1.57;100.00;99964.66;5035096;28;20048;-62
2022/03/31 07:20:33;;;;;;;6.32;5.35;;;;;;;1.41;100.00;99940.47;5035223;28;20108;-62
2022/03/31 07:22:59;;;;;;;6.72;5.30;;;;;;;1.50;100.00;99966.34;5035384;28;20025;-60
2022/03/31 07:25:25;;;;;;;6.60;5.85;;;;;;;1.54;100.00;99972.41;5035174;28;20029;-61
2022/03/31 07:27:50;;;;;;;7.30;6.10;;;;;;;1.52;100.00;99979.25;5035260;28;20044;-62
2022/03/31 07:30:17;;;;;;;7.20;6.32;;;;;;;1.57;100.00;99972.41;5035059;28;20463;-61
2022/03/31 07:32:47;;;;;;;7.78;5.32;;;;;;;1.58;100.00;99969.84;5035180;28;20083;-62
2022/03/31 07:35:13;;;;;;;7.32;5.78;;;;;;;1.52;100.00;99969.81;5034874;28;20045;-60
2022/03/31 07:37:38;;;;;;;7.45;6.50;;;;;;;1.55;100.00;99977.56;5034373;28;20032;-61
2022/03/31 07:40:04;;;;;;;7.30;6.10;;;;;;;1.49;100.00;99962.03;5034723;28;20029;-61
2022/03/31 07:42:30;;;;;;;9.18;6.78;;;;;;;1.48;100.00;99973.19;5039929;28;20052;-61
2022/03/31 07:44:55;;;;;;;9.93;7.30;;;;;;;1.52;100.00;99964.66;5034962;28;20025;-60
2022/03/31 07:47:20;;;;;;;10.90;7.80;;;;;;;1.64;100.00;99969.03;5034938;28;20030;-61
2022/03/31 07:49:49;;;;;;;7.63;6.78;;;;;;;1.72;100.00;99977.72;5034457;28;20057;-61
2022/03/31 07:52:14;;;;;;;9.02;6.63;;;;;;;1.67;100.00;99972.50;5035021;28;20112;-60
2022/03/31 07:54:39;;;;;;;8.52;7.10;;;;;;;1.78;100.00;99979.44;5034757;28;20117;-60
2022/03/31 07:57:05;;;;;;;7.40;6.53;;;;;;;1.81;100.00;99977.78;5034912;28;20030;-60
2022/03/31 07:59:33;;;;;;;8.77;7.13;;;;;;;1.82;100.00;99976.06;5033991;28;20033;-59
2022/03/31 08:01:59;;;;;;;7.30;6.43;;;;;;;1.85;100.00;99981.25;5032151;28;20506;-56
2022/03/31 08:04:24;;;;;;;8.18;6.70;;;;;;;1.77;100.00;99970.00;5034854;28;20049;-64
2022/03/31 08:06:50;;;;;;;7.18;6.15;;;;;;;1.66;100.00;99952.72;5035366;28;20094;-64
2022/03/31 08:09:20;;;;;;;8.15;6.82;;;;;;;1.83;100.00;99970.03;5034573;28;20337;-62
2022/03/31 08:11:46;;;;;;;7.82;5.72;;;;;;;1.90;100.00;99972.69;5035396;28;20033;-66
2022/03/31 08:14:11;;;;;;;8.85;6.50;;;;;;;1.93;100.00;99951.19;5034567;28;20182;-64
2022/03/31 08:16:36;;;;;;;6.43;5.68;;;;;;;1.91;100.00;99934.84;5034811;28;20029;-63
2022/03/31 08:19:02;;;;;;;6.35;5.32;;;;;;;2.05;100.00;99961.63;5034417;28;20431;-64
2022/03/31 08:21:27;;;;;;;6.30;5.10;;;;;;;2.01;100.00;99959.88;5033845;28;20060;-64
2022/03/31 08:23:53;;;;;;;6.05;5.13;;;;;;;2.02;100.00;99946.09;5034161;28;20112;-65
2022/03/31 08:26:18;;;;;;;5.82;4.85;;;;;;;2.06;100.00;99958.19;5034618;28;20029;-63
2022/03/31 08:28:45;;;;;;;7.35;5.68;;;;;;;2.11;100.00;99951.31;5034421;28;20372;-62
2022/03/31 08:31:10;;;;;;;7.70;5.75;;;;;;;2.16;100.00;99956.50;5034227;28;20060;-63
2022/03/31 08:33:35;;;;;;;5.78;4.45;;;;;;;2.11;100.00;99948.72;5033666;28;20111;-63
2022/03/31 08:36:00;;;;;;;6.68;4.75;;;;;;;2.16;100.00;99959.09;5034074;28;20046;-62
2022/03/31 08:38:26;;;;;;;6.85;5.07;;;;;;;2.05;100.00;99962.47;5034454;28;20045;-63
2022/03/31 08:40:54;;;;;;;7.95;5.68;;;;;;;2.01;100.00;99944.38;5034513;28;20035;-64
2022/03/31 08:43:20;;;;;;;6.65;5.50;;;;;;;2.19;100.00;99956.53;5034124;28;20043;-64
2022/03/31 08:45:51;;;;;;;7.97;6.30;;;;;;;2.21;100.00;99958.28;5034578;28;20033;-65
2022/03/31 08:48:16;;;;;;;7.28;6.05;;;;;;;2.20;100.00;99951.38;5033635;28;20034;-67
2022/03/31 08:50:42;;;;;;;6.85;5.82;;;;;;;2.37;100.00;99972.13;5037811;28;20040;-64
2022/03/31 08:53:07;;;;;;;7.30;6.30;;;;;;;2.34;100.00;99969.53;5037422;28;20029;-67
2022/03/31 08:55:33;;;;;;;9.55;6.85;;;;;;;2.30;100.00;99976.38;5038091;28;20110;-66
2022/03/31 08:57:58;;;;;;;9.43;7.45;;;;;;;2.34;100.00;99960.06;5037587;28;20038;-67
2022/03/31 09:00:25;;;;;;;8.60;6.15;;;;;;;2.38;100.00;99979.03;5036032;28;20036;-64
2022/03/31 09:03:02;;;;;;;9.70;6.50;;;;;;;2.34;100.00;99980.72;5032748;28;20552;-66
2022/03/31 09:05:35;;;;;;;6.75;5.72;;;;;;;2.39;100.00;99976.47;5036452;28;20037;-65
2022/03/31 09:08:02;;;;;;;7.68;5.63;;;;;;;2.32;100.00;99968.66;5037009;28;20492;-65
2022/03/31 09:10:36;;;;;;;8.35;6.57;;;;;;;2.43;100.00;99985.91;5036983;28;20025;-67
2022/03/31 09:13:04;;;;;;;9.00;6.32;;;;;;;2.44;100.00;99987.66;5037011;28;20029;-65
2022/03/31 09:15:32;;;;;;;8.55;6.60;;;;;;;2.49;100.00;99985.09;5037014;28;20060;-62
2022/03/31 09:17:59;;;;;;;7.25;5.97;;;;;;;2.52;100.00;99982.53;5037213;28;20026;-64
2022/03/31 09:20:40;;;;;;;8.18;6.78;;;;;;;2.59;100.00;99971.41;5036931;28;20419;-64
2022/03/31 09:23:06;;;;;;;8.82;6.47;;;;;;;2.63;100.00;99982.56;5037273;28;20037;-63
2022/03/31 09:25:32;;;;;;;7.93;6.28;;;;;;;2.65;100.00;99975.72;5037251;28;20037;-64
2022/03/31 09:28:00;;;;;;;9.57;6.85;;;;;;;2.60;100.00;99977.44;5036941;28;20029;-64
2022/03/31 09:30:27;;;;;;;8.63;6.97;;;;;;;2.48;100.00;99951.53;5037041;28;20033;-66
2022/03/31 09:32:52;;;;;;;6.95;5.88;;;;;;;2.67;100.00;99977.44;5036992;28;20356;-63
2022/03/31 09:35:24;;;;;;;7.85;6.47;;;;;;;2.65;100.00;99989.47;5036699;28;20108;-65
2022/03/31 09:37:51;;;;;;;7.97;6.57;;;;;;;2.63;100.00;99987.75;5036909;28;20461;-64
2022/03/31 09:40:18;;;;;;;8.57;6.35;;;;;;;2.56;100.00;99978.25;5036480;28;20087;-65
2022/03/31 09:42:55;;;;;;;10.02;6.70;;;;;;;2.66;100.00;99990.34;5036734;28;20041;-64
2022/03/31 09:45:20;;;;;;;9.60;7.15;;;;;;;2.84;100.00;99981.81;5037078;28;20055;-64
2022/03/31 09:47:50;;;;;;;8.55;6.15;;;;;;;2.79;100.00;99971.44;5036652;28;20037;-66
2022/03/31 09:50:16;;;;;;;7.80;6.38;;;;;;;2.73;100.00;99974.03;5037379;28;20388;-64
2022/03/31 09:52:43;;;;;;;7.07;5.93;;;;;;;2.71;100.00;99974.03;5037212;28;20076;-64
2022/03/31 09:55:10;;;;;;;8.13;6.10;;;;;;;2.68;100.00;99980.88;5036956;28;20133;-66
2022/03/31 09:57:39;;;;;;;8.52;6.57;;;;;;;2.74;100.00;99974.03;5035736;28;20052;-64
2022/03/31 10:00:06;;;;;;;8.02;6.68;;;;;;;2.85;100.00;99973.22;5032907;28;20116;-65
2022/03/31 10:02:35;;;;;;;8.05;6.28;;;;;;;2.82;100.00;99968.03;5036584;28;20043;-65
2022/03/31 10:05:01;;;;;;;7.28;6.28;;;;;;;2.77;100.00;99971.44;5036694;28;20436;-63
2022/03/31 10:07:29;;;;;;;10.90;6.57;;;;;;;2.83;100.00;99980.09;5036792;28;20043;-66
2022/03/31 10:09:54;;;;;;;7.05;6.35;;;;;;;2.72;100.00;99961.97;5035324;28;20034;-64
2022/03/31 10:12:28;;;;;;;8.55;5.95;;;;;;;2.69;100.00;99970.56;5036568;28;20404;-66
2022/03/31 10:15:04;;;;;;;7.63;6.50;;;;;;;2.68;100.00;99965.41;5065277;28;20464;-63
2022/03/31 10:17:31;;;;;;;6.80;6.05;;;;;;;2.70;100.00;99956.78;5036118;28;20048;-64
2022/03/31 10:20:11;;;;;;;8.77;6.80;;;;;;;2.79;100.00;99969.72;5035949;28;20103;-67
2022/03/31 10:25:22;;;;;;;6.10;5.10;;;;;;;3.12;100.00;99975.88;5036168;28;20060;-65
2022/03/31 10:27:50;;;;;;;6.93;5.55;;;;;;;3.14;100.00;99967.25;5036460;28;20347;-61
2022/03/31 10:30:19;;;;;;;8.48;5.72;;;;;;;3.32;100.00;99970.75;5036095;28;20428;-63
2022/03/31 10:32:55;;;;;;;7.70;5.80;;;;;;;3.36;100.00;99973.34;5036299;28;20440;-64
2022/03/31 10:35:25;;;;;;;7.53;5.53;;;;;;;3.34;100.00;99976.78;5035995;28;20029;-65
2022/03/31 10:37:51;;;;;;;6.45;5.63;;;;;;;3.29;100.00;99973.34;5035885;28;20496;-66
2022/03/31 10:40:34;;;;;;;6.45;5.57;;;;;;;3.49;100.00;99969.91;5035871;28;20048;-66
2022/03/31 10:43:01;;;;;;;6.97;5.50;;;;;;;3.49;100.00;99969.91;5035906;28;20040;-66
2022/03/31 10:45:39;;;;;;;6.57;5.60;;;;;;;3.48;100.00;99939.72;5036008;28;20479;-63
2022/03/31 10:48:28;;;;;;;6.30;5.68;;;;;;;3.69;100.00;99969.06;5035862;28;20453;-66
2022/03/31 10:51:10;;;;;;;6.82;5.82;;;;;;;3.89;100.00;99964.75;5035460;28;20091;-65
2022/03/31 10:53:39;;;;;;;6.60;5.87;;;;;;;4.10;100.00;99961.28;5035977;28;20036;-67
2022/03/31 10:56:19;;;;;;;7.35;5.97;;;;;;;4.27;100.00;99956.94;5035739;28;20458;-62
2022/03/31 10:58:45;;;;;;;5.78;5.18;;;;;;;4.15;99.47;99944.88;5035760;28;20083;-64
2022/03/31 11:01:11;;;;;;;6.95;5.18;;;;;;;4.05;99.35;99939.72;5035755;28;20025;-64
2022/03/31 11:03:38;;;;;;;6.32;5.40;;;;;;;3.88;100.00;99925.94;5035421;28;20034;-65
2022/03/31 11:06:07;;;;;;;5.68;4.80;;;;;;;4.03;99.37;99952.66;5035452;28;20037;-63
2022/03/31 11:08:41;;;;;;;6.00;5.28;;;;;;;3.96;100.00;99952.69;5035386;28;20037;-67
2022/03/31 11:11:08;;;;;;;6.10;4.90;;;;;;;4.03;100.00;99954.38;5035129;28;20460;-64
2022/03/31 11:13:35;;;;;;;6.18;5.13;;;;;;;4.04;99.61;99946.63;5034339;28;20110;-64
2022/03/31 11:16:01;;;;;;;6.20;5.60;;;;;;;4.03;100.00;99937.13;5035356;28;20058;-65
2022/03/31 11:18:27;;;;;;;7.20;5.28;;;;;;;4.13;100.00;99951.78;5035229;28;20025;-65
2022/03/31 11:21:00;;;;;;;4.82;4.32;;;;;;;4.18;97.73;99950.03;5035377;28;20046;-65
2022/03/31 11:23:28;;;;;;;6.68;5.20;;;;;;;4.07;99.94;99931.09;5035454;28;20025;-63
2022/03/31 11:25:54;;;;;;;6.22;4.82;;;;;;;4.12;98.78;99936.25;5035097;28;20342;-64
2022/03/31 11:28:20;;;;;;;5.63;5.03;;;;;;;4.03;100.00;99942.31;5035531;28;20052;-65
2022/03/31 11:30:48;;;;;;;6.18;5.57;;;;;;;3.89;100.00;99920.75;5035357;28;20025;-65
2022/03/31 11:33:14;;;;;;;7.63;6.13;;;;;;;4.12;100.00;99923.31;5035413;28;20351;-63
2022/03/31 11:35:40;;;;;;;6.68;5.93;;;;;;;4.27;100.00;99927.59;5035105;28;20048;-64
2022/03/31 11:38:17;;;;;;;6.28;5.68;;;;;;;4.40;100.00;99924.94;5035064;28;20099;-63
2022/03/31 11:40:44;;;;;;;6.93;5.72;;;;;;;4.28;100.00;99927.59;5034762;28;20512;-64
2022/03/31 11:43:12;;;;;;;5.45;4.95;;;;;;;4.17;100.00;99921.56;5035057;28;20087;-65